Time;durP1;ratioP1;P1;durP2;ratioP2;P2;SDS_P1;SDS_P2;PMS_P1;PMS_P2;Temp;Humidity;BMP_temperature;BMP_pressure;BME280_temperature;BME280_humidity;BME280_pressure;Samples;Min_cycle;Max_cycle;Signal;HPM_P1;HPM_P2
2023/10/26 00:02:10;;;;;;;;;;;;;;;21.62;60.68;100464.94;6213369;23;19965;-89
2023/10/26 00:04:37;;;;;;;;;;;;;;;21.64;60.79;100455.22;6187416;23;19965;-90
2023/10/26 00:07:04;;;;;;;;;;;;;;;21.64;60.60;100453.44;6213498;23;19912;-89
2023/10/26 00:09:29;;;;;;;;;;;;;;;21.63;60.72;100454.34;6212459;23;19928;-89
2023/10/26 00:11:54;;;;;;;;;;;;;;;21.64;60.72;100445.47;6188127;23;20000;-88
2023/10/26 00:14:20;;;;;;;;;;;;;;;21.64;60.69;100448.13;6212574;23;19908;-89
2023/10/26 00:16:45;;;;;;;;;;;;;;;21.65;60.65;100444.59;6213373;23;19970;-89
2023/10/26 00:19:11;;;;;;;;;;;;;;;21.65;60.70;100464.94;6214758;23;19908;-88
2023/10/26 00:21:36;;;;;;;;;;;;;;;21.64;60.80;100480.00;6212808;23;20352;-88
2023/10/26 00:24:03;;;;;;;;;;;;;;;21.65;60.76;100476.50;6212672;23;19919;-88
2023/10/26 00:26:28;;;;;;;;;;;;;;;21.66;60.58;100470.28;6214382;23;20308;-88
2023/10/26 00:28:53;;;;;;;;;;;;;;;21.64;60.80;100479.13;6216625;23;20003;-88
2023/10/26 00:31:19;;;;;;;;;;;;;;;21.63;60.84;100478.25;6218603;23;20359;-89
2023/10/26 00:33:44;;;;;;;;;;;;;;;21.62;60.67;100462.28;6217113;23;19908;-89
2023/10/26 00:36:10;;;;;;;;;;;;;;;21.62;60.64;100449.88;6243726;23;19907;-88
2023/10/26 00:38:38;;;;;;;;;;;;;;;21.64;60.71;100455.22;6218221;23;20501;-89
2023/10/26 00:41:04;;;;;;;;;;;;;;;21.63;60.74;100450.75;6217295;23;19907;-88
2023/10/26 00:43:30;;;;;;;;;;;;;;;21.66;60.76;100458.78;6243426;23;20474;-89
2023/10/26 00:45:56;;;;;;;;;;;;;;;21.63;60.68;100462.31;6243132;23;19907;-86
2023/10/26 00:48:23;;;;;;;;;;;;;;;21.65;60.62;100454.31;6217351;23;19911;-88
2023/10/26 00:50:50;;;;;;;;;;;;;;;21.62;60.72;100449.88;6244082;23;19982;-88
2023/10/26 00:53:19;;;;;;;;;;;;;;;21.65;60.78;100446.34;6243657;23;19919;-88
2023/10/26 00:55:46;;;;;;;;;;;;;;;21.64;60.69;100437.50;6243259;23;19907;-89
2023/10/26 00:58:13;;;;;;;;;;;;;;;21.67;60.61;100437.50;6244061;23;20240;-88
2023/10/26 01:00:39;;;;;;;;;;;;;;;21.69;60.49;100443.69;6244340;23;19914;-89
2023/10/26 01:03:05;;;;;;;;;;;;;;;21.71;60.53;100451.69;6217000;23;20268;-90
2023/10/26 01:05:31;;;;;;;;;;;;;;;21.70;60.57;100453.47;6242183;23;19980;-89
2023/10/26 01:07:56;;;;;;;;;;;;;;;21.72;60.47;100450.81;6243840;23;20236;-88
2023/10/26 01:10:23;;;;;;;;;;;;;;;21.71;60.45;100454.34;6243206;23;20413;-89
2023/10/26 01:12:57;;;;;;;;;;;;;;;21.70;60.43;100458.78;6242635;23;19915;-89
2023/10/26 01:15:23;;;;;;;;;;;;;;;21.70;60.53;100455.25;6243724;23;19911;-88
2023/10/26 01:17:49;;;;;;;;;;;;;;;21.71;60.58;100449.03;6217616;23;20319;-88
2023/10/26 01:20:18;;;;;;;;;;;;;;;21.69;60.55;100434.84;6216646;23;19974;-89
2023/10/26 01:22:43;;;;;;;;;;;;;;;21.70;60.44;100439.28;6217489;23;19908;-88
2023/10/26 01:25:09;;;;;;;;;;;;;;;21.68;60.44;100436.63;6243029;23;19912;-89
2023/10/26 01:27:34;;;;;;;;;;;;;;;21.67;60.58;100449.91;6241203;23;19911;-88
2023/10/26 01:30:03;;;;;;;;;;;;;;;21.67;60.58;100449.91;6216927;23;20315;-90
2023/10/26 01:32:28;;;;;;;;;;;;;;;21.67;60.61;100448.13;6217443;23;19907;-89
2023/10/26 01:34:54;;;;;;;;;;;;;;;21.70;60.42;100450.81;6216846;23;19981;-89
2023/10/26 01:37:21;;;;;;;;;;;;;;;21.68;60.35;100451.69;6240931;23;19911;-88
2023/10/26 01:39:47;;;;;;;;;;;;;;;21.72;60.43;100464.09;6242973;23;19908;-90
2023/10/26 01:42:13;;;;;;;;;;;;;;;21.67;60.52;100460.53;6215281;23;20358;-90
2023/10/26 01:44:39;;;;;;;;;;;;;;;21.68;60.47;100454.34;6218141;23;19911;-90
2023/10/26 01:47:12;;;;;;;;;;;;;;;21.70;60.39;100453.47;6217153;23;19930;-91
2023/10/26 01:49:38;;;;;;;;;;;;;;;21.70;60.43;100464.09;6217548;23;20347;-90
2023/10/26 01:52:03;;;;;;;;;;;;;;;21.70;60.59;100471.19;6243170;23;19912;-90
2023/10/26 01:54:29;;;;;;;;;;;;;;;21.69;60.60;100472.06;6218663;23;19915;-90
2023/10/26 01:56:55;;;;;;;;;;;;;;;21.68;60.65;100473.81;6244444;23;20327;-89
2023/10/26 01:59:21;;;;;;;;;;;;;;;21.71;60.50;100472.94;6218271;23;19907;-91
2023/10/26 02:01:48;;;;;;;;;;;;;;;21.70;60.51;100474.72;6243148;23;19908;-90
2023/10/26 02:04:17;;;;;;;;;;;;;;;21.70;60.55;100480.03;6242073;23;20290;-91
2023/10/26 02:06:43;;;;;;;;;;;;;;;21.70;60.54;100473.84;6216926;23;20358;-90
2023/10/26 02:09:08;;;;;;;;;;;;;;;21.68;60.55;100478.25;6242111;23;19908;-90
2023/10/26 02:11:33;;;;;;;;;;;;;;;21.70;60.60;100473.84;6217627;23;20413;-90
2023/10/26 02:13:59;;;;;;;;;;;;;;;21.66;60.59;100467.63;6216605;23;19911;-89
2023/10/26 02:16:24;;;;;;;;;;;;;;;21.68;60.52;100471.16;6240404;23;20355;-88
2023/10/26 02:18:50;;;;;;;;;;;;;;;21.68;60.55;100473.81;6242189;23;19947;-89
2023/10/26 02:21:15;;;;;;;;;;;;;;;21.67;60.60;100471.16;6242205;23;20335;-87
2023/10/26 02:23:41;;;;;;;;;;;;;;;21.68;60.57;100457.88;6242497;23;19915;-87
2023/10/26 02:26:06;;;;;;;;;;;;;;;21.70;60.46;100455.25;6241707;23;19908;-89
2023/10/26 02:28:33;;;;;;;;;;;;;;;21.70;60.49;100455.25;6242061;23;19912;-88
2023/10/26 02:30:58;;;;;;;;;;;;;;;21.70;60.50;100455.25;6217255;23;19916;-87
2023/10/26 02:33:24;;;;;;;;;;;;;;;21.70;60.41;100465.88;6246008;23;20305;-87
2023/10/26 02:35:50;;;;;;;;;;;;;;;21.71;60.46;100457.88;6246097;23;19911;-88
2023/10/26 02:38:15;;;;;;;;;;;;;;;21.69;60.58;100445.47;6246490;23;20355;-88
2023/10/26 02:40:41;;;;;;;;;;;;;;;21.68;60.41;100449.91;6217006;23;19908;-89
2023/10/26 02:43:07;;;;;;;;;;;;;;;21.69;60.46;100445.47;6215450;23;20268;-88
2023/10/26 02:45:32;;;;;;;;;;;;;;;21.70;60.43;100448.16;6243225;23;19908;-89
2023/10/26 02:48:02;;;;;;;;;;;;;;;21.71;60.40;100449.03;6216442;23;19907;-90
2023/10/26 02:50:30;;;;;;;;;;;;;;;21.70;60.42;100447.25;6241918;23;19907;-89
2023/10/26 02:52:57;;;;;;;;;;;;;;;21.70;60.36;100453.47;6243835;23;19942;-89
2023/10/26 02:55:24;;;;;;;;;;;;;;;21.72;60.45;100448.16;6243822;23;19915;-89
2023/10/26 02:57:50;;;;;;;;;;;;;;;21.70;60.36;100441.94;6242641;23;19907;-88
2023/10/26 03:00:16;;;;;;;;;;;;;;;21.69;60.41;100451.66;6216441;23;19907;-88
2023/10/26 03:02:41;;;;;;;;;;;;;;;21.69;60.41;100448.13;6242006;23;19908;-88
2023/10/26 03:05:08;;;;;;;;;;;;;;;21.68;60.62;100465.84;6241379;23;19908;-88
2023/10/26 03:07:34;;;;;;;;;;;;;;;21.70;60.40;100460.56;6242558;23;19908;-88
2023/10/26 03:10:00;;;;;;;;;;;;;;;21.58;60.81;100455.19;6217548;23;19915;-89
2023/10/26 03:12:26;;;;;;;;;;;;;;;21.49;61.14;100450.72;6217026;23;20392;-89
2023/10/26 03:14:52;;;;;;;;;;;;;;;21.52;61.00;100454.25;6217142;23;20358;-88
2023/10/26 03:17:18;;;;;;;;;;;;;;;21.50;61.08;100440.09;6214917;23;19907;-88
2023/10/26 03:19:44;;;;;;;;;;;;;;;21.48;61.27;100447.19;6240644;23;19930;-88
2023/10/26 03:22:10;;;;;;;;;;;;;;;21.51;61.12;100463.13;6217030;23;20331;-89
2023/10/26 03:24:37;;;;;;;;;;;;;;;21.50;61.30;100476.41;6216487;23;19919;-88
2023/10/26 03:27:03;;;;;;;;;;;;;;;21.49;61.22;100478.19;6243074;23;19907;-90
2023/10/26 03:29:28;;;;;;;;;;;;;;;21.50;61.14;100471.09;6243540;23;19922;-90
2023/10/26 03:31:54;;;;;;;;;;;;;;;21.53;60.98;100468.47;6218789;23;19907;-91
2023/10/26 03:34:19;;;;;;;;;;;;;;;21.52;60.89;100478.19;6218772;23;19918;-90
2023/10/26 03:36:45;;;;;;;;;;;;;;;21.53;60.93;100472.00;6245618;23;19978;-90
2023/10/26 03:39:10;;;;;;;;;;;;;;;21.63;60.68;100475.59;6218307;23;19962;-90
2023/10/26 03:41:36;;;;;;;;;;;;;;;21.64;60.59;100471.16;6243747;23;19973;-89
2023/10/26 03:44:02;;;;;;;;;;;;;;;21.66;60.56;100469.41;6245921;23;20477;-88
2023/10/26 03:46:28;;;;;;;;;;;;;;;21.61;60.70;100469.38;6244074;23;19911;-88
2023/10/26 03:48:53;;;;;;;;;;;;;;;21.55;60.87;100464.94;6218647;23;19907;-86
2023/10/26 03:51:20;;;;;;;;;;;;;;;21.51;60.95;100467.56;6245358;23;19912;-89
2023/10/26 03:53:46;;;;;;;;;;;;;;;21.49;61.27;100461.34;6238195;23;19915;-88
2023/10/26 03:56:43;;;;;;;;;;;;;;;21.49;61.06;100454.25;6217292;23;19951;-89
2023/10/26 04:05:20;;;;;;;;;;;;;;;21.57;60.74;100456.06;6239548;23;19923;-92
2023/10/26 04:07:47;;;;;;;;;;;;;;;21.55;60.84;100461.38;6219626;23;20305;-89
2023/10/26 04:10:13;;;;;;;;;;;;;;;21.55;60.82;100462.25;6218395;23;19911;-93
2023/10/26 04:12:39;;;;;;;;;;;;;;;21.55;60.89;100462.25;6219074;23;20259;-91
2023/10/26 04:15:04;;;;;;;;;;;;;;;21.52;60.95;100464.00;6217876;23;19908;-89
2023/10/26 04:17:30;;;;;;;;;;;;;;;21.52;60.79;100454.25;6241882;23;19974;-91
2023/10/26 04:19:56;;;;;;;;;;;;;;;21.57;60.78;100458.72;6243851;23;19911;-91
2023/10/26 04:22:25;;;;;;;;;;;;;;;21.53;60.88;100466.69;6216922;23;19982;-90
2023/10/26 04:24:51;;;;;;;;;;;;;;;21.52;60.92;100462.22;6218594;23;20263;-91
2023/10/26 04:27:17;;;;;;;;;;;;;;;21.52;60.96;100467.53;6216925;23;19915;-92
2023/10/26 04:29:44;;;;;;;;;;;;;;;21.48;61.04;100464.88;6216899;23;19915;-94
2023/10/26 04:32:09;;;;;;;;;;;;;;;21.52;60.78;100456.03;6217150;23;19987;-90
2023/10/26 04:34:34;;;;;;;;;;;;;;;21.54;60.83;100465.78;6216471;23;19946;-90
2023/10/26 04:37:00;;;;;;;;;;;;;;;21.47;60.96;100458.69;6242002;23;19962;-89
2023/10/26 04:39:25;;;;;;;;;;;;;;;21.50;60.94;100466.66;6240643;23;19911;-90
2023/10/26 04:41:51;;;;;;;;;;;;;;;21.49;60.83;100467.53;6240823;23;19912;-90
2023/10/26 04:44:18;;;;;;;;;;;;;;;21.46;60.94;100475.53;6242560;23;20386;-89
2023/10/26 04:46:44;;;;;;;;;;;;;;;21.48;60.94;100489.69;6243025;23;19913;-91
2023/10/26 04:49:25;;;;;;;;;;;;;;;21.52;60.72;100491.47;6244729;23;19907;-93
2023/10/26 04:51:52;;;;;;;;;;;;;;;21.53;60.81;100495.91;6220091;23;19907;-93
2023/10/26 04:54:27;;;;;;;;;;;;;;;21.52;60.71;100494.13;6219393;23;19931;-92
2023/10/26 04:56:57;;;;;;;;;;;;;;;21.50;60.84;100495.88;6218564;23;19908;-91
2023/10/26 04:59:24;;;;;;;;;;;;;;;21.49;60.79;100501.22;6217597;23;19914;-89
2023/10/26 05:02:02;;;;;;;;;;;;;;;21.47;60.87;100509.16;6220445;23;19911;-95
2023/10/26 05:04:39;;;;;;;;;;;;;;;21.47;60.85;100501.19;6249237;23;20358;-93
2023/10/26 05:10:23;;;;;;;;;;;;;;;21.50;60.82;100511.81;6241585;23;19908;-94
2023/10/26 05:13:17;;;;;;;;;;;;;;;21.52;60.52;100515.38;6217512;23;19908;-94
2023/10/26 05:15:48;;;;;;;;;;;;;;;21.52;60.54;100527.78;6219780;23;20359;-94
2023/10/26 05:18:33;;;;;;;;;;;;;;;21.53;60.55;100526.91;6220803;23;19912;-95
2023/10/26 05:21:02;;;;;;;;;;;;;;;21.52;60.52;100531.31;6220537;23;19992;-94
2023/10/26 05:23:35;;;;;;;;;;;;;;;21.52;60.50;100533.97;6222734;23;19912;-95
2023/10/26 05:26:06;;;;;;;;;;;;;;;21.53;60.39;100537.53;6219177;23;19916;-95
2023/10/26 05:28:36;;;;;;;;;;;;;;;21.52;60.45;100541.06;6223410;23;19990;-96
2023/10/26 05:31:10;;;;;;;;;;;;;;;21.51;60.40;100539.31;6244247;23;19982;-93
2023/10/26 05:33:36;;;;;;;;;;;;;;;21.49;60.56;100535.75;6242071;23;19939;-92
2023/10/26 05:36:02;;;;;;;;;;;;;;;21.48;60.46;100540.19;6217479;23;19914;-90
2023/10/26 05:38:28;;;;;;;;;;;;;;;21.50;60.49;100537.50;6218200;23;19938;-92
2023/10/26 05:41:09;;;;;;;;;;;;;;;21.46;60.58;100536.63;6217972;23;19927;-93
2023/10/26 05:43:36;;;;;;;;;;;;;;;21.48;60.59;100531.28;6218195;23;19912;-92
2023/10/26 05:46:11;;;;;;;;;;;;;;;21.43;60.59;100519.78;6244431;23;19951;-94
2023/10/26 05:48:38;;;;;;;;;;;;;;;21.48;60.34;100528.63;6218027;23;19907;-92
2023/10/26 05:51:15;;;;;;;;;;;;;;;21.48;60.43;100547.22;6241808;23;19986;-93
2023/10/26 05:53:57;;;;;;;;;;;;;;;21.47;60.52;100550.78;6217631;23;19986;-94
2023/10/26 05:56:38;;;;;;;;;;;;;;;21.46;60.54;100552.56;6246591;23;19908;-96
2023/10/26 05:59:10;;;;;;;;;;;;;;;21.45;60.55;100552.53;6223907;23;19907;-93
2023/10/26 06:01:46;;;;;;;;;;;;;;;21.42;60.68;100549.84;6219908;23;19914;-93
2023/10/26 06:04:15;;;;;;;;;;;;;;;21.38;60.73;100553.34;6217824;23;20307;-96
2023/10/26 06:06:42;;;;;;;;;;;;;;;21.37;60.79;100543.59;6217571;23;19915;-92
2023/10/26 06:09:16;;;;;;;;;;;;;;;21.34;60.84;100547.13;6219422;23;19915;-93
2023/10/26 06:11:49;;;;;;;;;;;;;;;21.39;60.74;100555.13;6219527;23;19912;-94
2023/10/26 06:14:35;;;;;;;;;;;;;;;21.33;60.87;100550.66;6220704;23;19926;-93
2023/10/26 06:17:03;;;;;;;;;;;;;;;21.34;60.83;100557.75;6234417;23;19939;-90
2023/10/26 06:19:31;;;;;;;;;;;;;;;21.32;60.98;100557.75;6243015;22;20232;-90
2023/10/26 06:21:57;;;;;;;;;;;;;;;21.35;60.87;100548.91;6241375;23;19919;-91
2023/10/26 06:24:22;;;;;;;;;;;;;;;21.35;60.76;100530.31;6242114;22;19896;-91
2023/10/26 06:26:48;;;;;;;;;;;;;;;21.28;60.96;100529.38;6246614;22;19926;-93
2023/10/26 06:29:16;;;;;;;;;;;;;;;21.27;60.98;100522.31;6246209;22;19915;-92
2023/10/26 06:31:44;;;;;;;;;;;;;;;21.25;61.06;100532.03;6245374;23;19923;-94
2023/10/26 06:34:09;;;;;;;;;;;;;;;21.28;60.96;100534.69;6244959;23;19908;-93
2023/10/26 06:36:34;;;;;;;;;;;;;;;21.31;60.96;100537.38;6245214;22;19951;-91
2023/10/26 06:39:02;;;;;;;;;;;;;;;21.31;60.83;100540.03;6226566;23;19922;-93
2023/10/26 06:41:28;;;;;;;;;;;;;;;21.27;60.92;100546.22;6216045;23;19996;-89
2023/10/26 06:43:55;;;;;;;;;;;;;;;21.29;60.98;100547.13;6213514;23;19966;-89
2023/10/26 06:46:21;;;;;;;;;;;;;;;21.26;60.98;100549.72;6214827;23;19934;-89
2023/10/26 06:48:46;;;;;;;;;;;;;;;21.27;60.99;100553.25;6215466;23;19989;-88
2023/10/26 06:51:12;;;;;;;;;;;;;;;21.28;61.04;100563.03;6213755;23;19914;-88
2023/10/26 06:53:39;;;;;;;;;;;;;;;21.29;61.08;100564.78;6239903;23;19914;-88
2023/10/26 06:56:11;;;;;;;;;;;;;;;21.25;61.14;100555.03;6239983;23;19931;-87
2023/10/26 06:58:36;;;;;;;;;;;;;;;21.26;61.09;100554.16;6215676;23;19911;-88
2023/10/26 07:01:05;;;;;;;;;;;;;;;21.28;60.94;100547.09;6241308;23;19996;-86
2023/10/26 07:03:30;;;;;;;;;;;;;;;21.25;61.16;100545.31;6242095;23;19907;-88
2023/10/26 07:05:55;;;;;;;;;;;;;;;21.26;61.04;100552.38;6216856;23;19986;-86
2023/10/26 07:08:21;;;;;;;;;;;;;;;21.26;61.05;100563.00;6216716;23;20417;-87
2023/10/26 07:10:46;;;;;;;;;;;;;;;21.28;61.02;100563.03;6241997;23;20270;-86
2023/10/26 07:13:12;;;;;;;;;;;;;;;21.30;60.99;100566.59;6243442;23;20379;-87
2023/10/26 07:15:37;;;;;;;;;;;;;;;21.27;60.88;100570.13;6216865;23;19907;-88
2023/10/26 07:18:03;;;;;;;;;;;;;;;21.29;60.90;100568.38;6216496;23;19908;-89
2023/10/26 07:20:29;;;;;;;;;;;;;;;21.27;61.04;100566.53;6242213;23;19922;-88
2023/10/26 07:22:54;;;;;;;;;;;;;;;21.24;61.12;100559.44;6212985;23;19931;-89
2023/10/26 07:25:22;;;;;;;;;;;;;;;21.24;61.24;100555.91;6242091;23;19915;-89
2023/10/26 07:27:48;;;;;;;;;;;;;;;21.26;61.04;100548.84;6216427;23;19982;-88
2023/10/26 07:30:17;;;;;;;;;;;;;;;21.24;61.10;100548.84;6240508;23;20380;-88
2023/10/26 07:32:42;;;;;;;;;;;;;;;21.26;61.08;100531.13;6215555;23;19974;-87
2023/10/26 07:35:20;;;;;;;;;;;;;;;21.27;61.19;100540.91;6240115;23;19912;-88
2023/10/26 07:37:51;;;;;;;;;;;;;;;21.28;61.05;100534.69;6215509;23;20338;-89
2023/10/26 07:40:17;;;;;;;;;;;;;;;21.28;60.96;100533.81;6216714;23;19908;-81
2023/10/26 07:42:42;;;;;;;;;;;;;;;21.27;61.08;100532.03;6241341;23;19914;-87
2023/10/26 07:45:09;;;;;;;;;;;;;;;21.25;61.15;100539.09;6216662;23;19911;-86
2023/10/26 07:47:34;;;;;;;;;;;;;;;21.27;61.09;100537.34;6243861;23;19918;-89
2023/10/26 07:50:00;;;;;;;;;;;;;;;21.19;61.57;100541.69;6216393;23;19911;-88
2023/10/26 07:52:25;;;;;;;;;;;;;;;21.25;61.19;100540.00;6242441;23;20292;-87
2023/10/26 07:54:51;;;;;;;;;;;;;;;21.27;61.24;100543.56;6217133;23;19986;-87
2023/10/26 07:57:16;;;;;;;;;;;;;;;21.25;61.21;100550.63;6216731;23;19919;-87
2023/10/26 07:59:42;;;;;;;;;;;;;;;21.22;61.48;100558.56;6217092;23;19915;-87
2023/10/26 08:02:07;;;;;;;;;;;;;;;21.17;61.43;100555.00;6217648;23;19908;-87
2023/10/26 08:04:32;;;;;;;;;;;;;;;21.21;61.44;100554.13;6242735;23;20332;-88
2023/10/26 08:06:59;;;;;;;;;;;;;;;21.24;61.33;100555.91;6219318;23;20397;-86
2023/10/26 08:09:28;;;;;;;;;;;;;;;21.25;61.26;100541.75;6245616;23;19907;-85
2023/10/26 08:11:53;;;;;;;;;;;;;;;21.27;61.15;100532.94;6247735;23;19931;-86
2023/10/26 08:14:20;;;;;;;;;;;;;;;21.26;61.29;100538.22;6221154;23;20385;-86
2023/10/26 08:16:45;;;;;;;;;;;;;;;21.29;61.14;100530.25;6245470;23;19907;-86
2023/10/26 08:19:10;;;;;;;;;;;;;;;21.29;61.13;100532.91;6245626;23;20349;-87
2023/10/26 08:21:38;;;;;;;;;;;;;;;21.29;61.21;100538.22;6218926;23;20360;-86
2023/10/26 08:24:03;;;;;;;;;;;;;;;21.28;61.28;100547.09;6243059;23;20327;-87
2023/10/26 08:26:29;;;;;;;;;;;;;;;21.30;61.16;100551.53;6219483;23;19907;-89
2023/10/26 08:28:54;;;;;;;;;;;;;;;21.27;61.25;100558.56;6218692;23;19908;-86
2023/10/26 08:31:20;;;;;;;;;;;;;;;21.28;61.15;100558.59;6243757;23;20319;-89
2023/10/26 08:33:46;;;;;;;;;;;;;;;21.28;61.44;100560.38;6242936;23;20334;-86
2023/10/26 08:36:11;;;;;;;;;;;;;;;21.28;61.24;100550.63;6243657;23;19911;-88
2023/10/26 08:38:36;;;;;;;;;;;;;;;21.26;61.07;100541.75;6243186;23;19965;-87
2023/10/26 08:41:02;;;;;;;;;;;;;;;21.25;61.52;100539.09;6217536;23;19911;-88
2023/10/26 08:43:28;;;;;;;;;;;;;;;21.20;61.95;100528.44;6241400;23;20053;-88
2023/10/26 08:45:55;;;;;;;;;;;;;;;21.30;61.72;100534.72;6243056;23;19908;-89
2023/10/26 08:48:22;;;;;;;;;;;;;;;21.24;62.10;100535.56;6211708;23;19990;-89
2023/10/26 08:50:48;;;;;;;;;;;;;;;21.22;61.40;100537.31;6216626;23;19931;-88
2023/10/26 08:53:15;;;;;;;;;;;;;;;21.25;62.45;100534.69;6217386;23;19943;-89
2023/10/26 08:55:47;;;;;;;;;;;;;;;21.29;61.88;100541.81;6217452;23;20504;-88
2023/10/26 08:58:24;;;;;;;;;;;;;;;21.32;62.01;100538.28;6242140;23;19915;-88
2023/10/26 09:00:52;;;;;;;;;;;;;;;21.29;62.04;100540.88;6243079;23;19990;-87
2023/10/26 09:03:18;;;;;;;;;;;;;;;21.32;62.16;100544.47;6242721;23;19923;-88
2023/10/26 09:06:01;;;;;;;;;;;;;;;21.32;62.33;100532.94;6242927;23;20241;-87
2023/10/26 09:08:31;;;;;;;;;;;;;;;21.28;63.00;100526.72;6214591;23;19946;-88
2023/10/26 09:11:12;;;;;;;;;;;;;;;21.28;62.76;100524.06;6217528;23;19918;-88
2023/10/26 09:14:09;;;;;;;;;;;;;;;21.32;63.09;100514.38;6243808;23;19908;-91
2023/10/26 09:16:36;;;;;;;;;;;;;;;21.31;63.17;100516.13;6216358;23;19907;-88
2023/10/26 09:19:12;;;;;;;;;;;;;;;21.33;63.04;100519.66;6241797;23;19912;-88
2023/10/26 09:22:03;;;;;;;;;;;;;;;21.31;63.58;100505.50;6211642;23;20409;-89
2023/10/26 09:24:31;;;;;;;;;;;;;;;21.27;63.89;100501.06;6243724;23;19911;-89
2023/10/26 09:26:59;;;;;;;;;;;;;;;21.28;63.93;100499.28;6244942;23;19916;-87
2023/10/26 09:29:59;;;;;;;;;;;;;;;21.26;63.92;100487.75;6217489;23;19919;-89
2023/10/26 09:32:34;;;;;;;;;;;;;;;21.19;64.29;100473.56;6241303;23;19958;-88
2023/10/26 09:35:01;;;;;;;;;;;;;;;21.24;64.10;100466.50;6243299;23;19991;-88
2023/10/26 09:37:27;;;;;;;;;;;;;;;21.22;64.10;100460.28;6242247;23;19919;-88
2023/10/26 09:39:53;;;;;;;;;;;;;;;21.25;64.32;100470.94;6243210;23;19961;-88
2023/10/26 09:42:19;;;;;;;;;;;;;;;21.26;64.21;100466.53;6217882;23;19912;-87
2023/10/26 09:44:45;;;;;;;;;;;;;;;21.22;64.76;100456.75;6243421;23;19919;-89
2023/10/26 09:47:11;;;;;;;;;;;;;;;21.22;64.64;100472.69;6243082;23;19955;-88
2023/10/26 09:49:36;;;;;;;;;;;;;;;21.21;65.01;100477.13;6242859;23;19911;-86
2023/10/26 09:52:02;;;;;;;;;;;;;;;21.21;64.81;100462.94;6241261;23;19913;-87
2023/10/26 09:54:28;;;;;;;;;;;;;;;21.26;64.65;100454.13;6241959;23;20331;-86
2023/10/26 09:57:04;;;;;;;;;;;;;;;21.24;65.00;100426.66;6242076;23;19998;-86
2023/10/26 09:59:30;;;;;;;;;;;;;;;21.25;65.24;100422.22;6242496;23;19908;-87
2023/10/26 10:01:56;;;;;;;;;;;;;;;21.26;65.20;100434.66;6242916;23;19912;-87
2023/10/26 10:04:34;;;;;;;;;;;;;;;21.26;65.13;100426.69;6242706;23;19916;-87
2023/10/26 10:07:02;;;;;;;;;;;;;;;21.22;65.00;100420.47;6241548;23;19907;-87
2023/10/26 10:09:28;;;;;;;;;;;;;;;21.22;65.31;100425.78;6215170;23;19907;-86
2023/10/26 10:12:12;;;;;;;;;;;;;;;21.26;65.02;100416.94;6240734;23;19912;-86
2023/10/26 10:14:47;;;;;;;;;;;;;;;21.23;65.04;100403.66;6214297;23;19935;-86
2023/10/26 10:17:13;;;;;;;;;;;;;;;21.26;64.84;100402.78;6215924;23;19907;-86
2023/10/26 10:19:46;;;;;;;;;;;;;;;21.26;65.12;100397.47;6241544;23;19912;-86
2023/10/26 10:22:30;;;;;;;;;;;;;;;21.24;65.21;100392.16;6241305;23;19916;-86
2023/10/26 10:24:55;;;;;;;;;;;;;;;21.23;65.45;100387.72;6214362;23;20370;-85
2023/10/26 10:27:21;;;;;;;;;;;;;;;21.25;65.41;100387.72;6241725;23;19915;-87
2023/10/26 10:29:47;;;;;;;;;;;;;;;21.25;65.45;100399.25;6239007;23;19926;-86
2023/10/26 10:32:33;;;;;;;;;;;;;;;21.32;65.46;100392.19;6241282;23;19908;-86
2023/10/26 10:34:58;;;;;;;;;;;;;;;21.31;65.65;100391.31;6241206;23;19935;-87
2023/10/26 10:37:24;;;;;;;;;;;;;;;21.30;65.44;100397.47;6241442;23;20409;-86
2023/10/26 10:40:08;;;;;;;;;;;;;;;21.33;65.32;100384.19;6217607;23;20331;-85
2023/10/26 10:42:34;;;;;;;;;;;;;;;21.32;65.62;100395.72;6244174;23;19914;-86
2023/10/26 10:45:00;;;;;;;;;;;;;;;21.32;65.53;100403.69;6217611;23;19916;-86
2023/10/26 10:47:29;;;;;;;;;;;;;;;21.37;66.22;100401.03;6219092;23;20425;-86
2023/10/26 10:50:12;;;;;;;;;;;;;;;21.39;66.15;100395.75;6244130;23;19915;-86
2023/10/26 10:52:38;;;;;;;;;;;;;;;21.43;66.44;100402.88;6244149;23;19907;-86
2023/10/26 10:55:03;;;;;;;;;;;;;;;21.40;66.63;100402.81;6218650;23;19907;-86
2023/10/26 10:57:28;;;;;;;;;;;;;;;21.40;66.66;100414.34;6243712;23;20264;-87
2023/10/26 10:59:54;;;;;;;;;;;;;;;21.40;66.76;100408.13;6218246;23;19908;-87
2023/10/26 11:02:19;;;;;;;;;;;;;;;21.32;66.18;100408.13;6245074;23;20318;-88
2023/10/26 11:04:55;;;;;;;;;;;;;;;21.43;66.32;100406.41;6245692;23;19912;-88
2023/10/26 11:07:30;;;;;;;;;;;;;;;21.46;65.21;100405.53;6244186;23;19935;-86
2023/10/26 11:09:56;;;;;;;;;;;;;;;21.52;65.51;100405.56;6244176;23;19986;-86
2023/10/26 11:12:22;;;;;;;;;;;;;;;21.45;66.07;100403.78;6243576;23;20275;-86
2023/10/26 11:14:51;;;;;;;;;;;;;;;21.43;65.87;100402.88;6243403;23;19915;-87
2023/10/26 11:17:19;;;;;;;;;;;;;;;21.43;65.55;100403.75;6243615;23;19912;-86
2023/10/26 11:19:45;;;;;;;;;;;;;;;21.47;65.18;100402.88;6241956;23;19986;-86
2023/10/26 11:22:14;;;;;;;;;;;;;;;21.46;65.30;100397.56;6242357;23;20000;-86
2023/10/26 11:24:39;;;;;;;;;;;;;;;21.47;65.04;100402.88;6217933;23;20343;-85
2023/10/26 11:27:11;;;;;;;;;;;;;;;21.47;64.93;100391.38;6243570;23;19914;-86
2023/10/26 11:29:37;;;;;;;;;;;;;;;21.48;64.86;100393.16;6245109;23;20390;-86
2023/10/26 11:32:02;;;;;;;;;;;;;;;21.49;65.12;100390.50;6245033;23;19908;-86
2023/10/26 11:34:28;;;;;;;;;;;;;;;21.51;64.72;100383.44;6218491;23;19962;-86
2023/10/26 11:36:53;;;;;;;;;;;;;;;21.48;64.95;100383.44;6243752;23;20335;-85
2023/10/26 11:39:19;;;;;;;;;;;;;;;21.50;64.79;100386.94;6242994;23;19986;-85
2023/10/26 11:41:56;;;;;;;;;;;;;;;21.49;64.63;100403.78;6218103;23;20346;-86
2023/10/26 11:44:22;;;;;;;;;;;;;;;21.56;64.44;100404.69;6243885;23;19915;-87
2023/10/26 11:46:48;;;;;;;;;;;;;;;21.49;64.85;100401.13;6245305;23;19949;-87
2023/10/26 11:49:13;;;;;;;;;;;;;;;21.52;64.48;100389.63;6243419;23;19912;-87
2023/10/26 11:51:38;;;;;;;;;;;;;;;21.51;64.64;100390.53;6218486;23;20263;-87
2023/10/26 11:54:10;;;;;;;;;;;;;;;21.57;64.42;100389.63;6243562;23;19956;-85
2023/10/26 11:56:36;;;;;;;;;;;;;;;21.54;64.86;100387.84;6217614;23;20006;-85
2023/10/26 11:59:01;;;;;;;;;;;;;;;21.49;64.98;100373.69;6218352;23;19951;-86
2023/10/26 12:01:27;;;;;;;;;;;;;;;21.47;64.89;100384.31;6243472;23;19908;-85
2023/10/26 12:03:52;;;;;;;;;;;;;;;21.47;64.81;100383.41;6245032;23;19994;-85
2023/10/26 12:06:18;;;;;;;;;;;;;;;21.43;64.69;100382.50;6243470;23;20007;-85
2023/10/26 12:08:43;;;;;;;;;;;;;;;21.36;64.54;100362.09;6243350;23;20344;-86
2023/10/26 12:11:09;;;;;;;;;;;;;;;21.40;64.35;100358.56;6244846;23;19908;-86
2023/10/26 12:13:35;;;;;;;;;;;;;;;21.43;64.31;100378.97;6242953;23;19908;-86
2023/10/26 12:16:01;;;;;;;;;;;;;;;21.48;63.99;100375.47;6243576;23;19908;-86
2023/10/26 12:18:27;;;;;;;;;;;;;;;21.51;63.87;100377.22;6244917;23;19912;-86
2023/10/26 12:20:52;;;;;;;;;;;;;;;21.49;64.03;100410.88;6244967;23;19938;-87
2023/10/26 12:23:18;;;;;;;;;;;;;;;21.47;64.03;100410.88;6217961;23;19912;-86
2023/10/26 12:25:43;;;;;;;;;;;;;;;21.45;64.14;100407.31;6244740;23;19986;-86
2023/10/26 12:28:08;;;;;;;;;;;;;;;21.47;64.01;100397.59;6244684;23;19988;-86
2023/10/26 12:30:34;;;;;;;;;;;;;;;21.47;64.08;100402.00;6243737;23;19939;-86
2023/10/26 12:32:59;;;;;;;;;;;;;;;21.51;63.85;100399.38;6244407;23;20351;-86
2023/10/26 12:35:25;;;;;;;;;;;;;;;21.51;63.89;100393.19;6243041;23;19907;-87
2023/10/26 12:37:51;;;;;;;;;;;;;;;21.52;63.54;100382.53;6243107;23;20348;-86
2023/10/26 12:40:18;;;;;;;;;;;;;;;21.53;63.67;100386.97;6243110;23;19915;-86
2023/10/26 12:42:44;;;;;;;;;;;;;;;21.57;63.62;100387.88;6217944;23;19907;-87
2023/10/26 12:45:10;;;;;;;;;;;;;;;21.55;63.64;100385.22;6243144;23;19915;-88
2023/10/26 12:47:36;;;;;;;;;;;;;;;21.54;63.61;100382.53;6217448;23;19946;-88
2023/10/26 12:50:01;;;;;;;;;;;;;;;21.55;63.36;100366.63;6243117;23;19915;-87